Time,TemperatureF,DewpointF,PressureIn,WindDirection,WindDirectionDegrees,WindSpeedMPH,WindSpeedGustMPH,Humidity,HourlyPrecipIn,Conditions,Clouds,dailyrainin,SoftwareType,DateUTC
2013-02-05 00:01:00,71.0,65.0,30.09,ENE,58,12.0,17.0,82,0.00,,,0.02,,2013-02-05 10:01:00,
2013-02-05 00:11:00,71.0,65.0,30.09,ENE,58,12.0,17.0,82,0.00,,,0.02,,2013-02-05 10:11:00,
2013-02-05 00:21:00,72.0,65.0,30.08,ENE,71,12.0,20.0,80,0.00,,,0.02,,2013-02-05 10:21:00,
2013-02-05 00:31:00,72.0,65.0,30.08,NNE,32,12.0,19.0,78,0.00,,,0.02,,2013-02-05 10:31:00,
2013-02-05 00:42:00,72.0,65.0,30.08,NNE,32,12.0,19.0,78,0.00,,,0.02,,2013-02-05 10:42:00,
2013-02-05 00:52:00,71.0,65.0,30.08,ENE,60,12.0,17.0,81,0.00,,,0.02,,2013-02-05 10:52:00,
2013-02-05 01:01:00,71.0,65.0,30.09,NNE,18,7.0,13.0,81,0.00,,,0.02,,2013-02-05 11:01:00,
2013-02-05 01:11:00,71.0,65.0,30.09,NNE,18,7.0,13.0,81,0.00,,,0.02,,2013-02-05 11:11:00,
2013-02-05 01:21:00,71.0,65.0,30.08,ENE,71,7.0,12.0,82,0.00,,,0.02,,2013-02-05 11:21:00,
2013-02-05 01:31:00,71.0,65.0,30.08,NNE,13,9.0,16.0,82,0.00,,,0.02,,2013-02-05 11:31:00,
2013-02-05 01:41:00,71.0,65.0,30.08,NNE,13,9.0,16.0,82,0.00,,,0.02,,2013-02-05 11:41:00,
2013-02-05 01:52:00,71.0,65.0,30.07,NNE,19,9.0,16.0,82,0.00,,,0.02,,2013-02-05 11:52:00,
2013-02-05 02:01:00,70.0,64.0,30.07,NNW,335,6.0,10.0,82,0.00,,,0.02,,2013-02-05 12:01:00,
2013-02-05 02:12:00,70.0,64.0,30.07,NNW,335,6.0,10.0,82,0.00,,,0.02,,2013-02-05 12:12:00,
2013-02-05 02:21:00,70.0,65.0,30.07,NW,318,13.0,18.0,85,0.00,,,0.02,,2013-02-05 12:21:00,
2013-02-05 02:31:00,69.0,65.0,30.07,NNE,26,6.0,14.0,86,0.00,,,0.02,,2013-02-05 12:31:00,
2013-02-05 02:41:00,69.0,65.0,30.07,NNE,26,6.0,14.0,86,0.00,,,0.02,,2013-02-05 12:41:00,
2013-02-05 02:52:00,69.0,65.0,30.07,NNW,343,6.0,18.0,88,0.02,,,0.04,,2013-02-05 12:52:00,
2013-02-05 03:01:00,67.0,64.0,30.07,NNW,347,7.0,15.0,90,0.02,,,0.04,,2013-02-05 13:01:00,
2013-02-05 03:11:00,67.0,64.0,30.07,NNW,347,7.0,15.0,90,0.02,,,0.04,,2013-02-05 13:11:00,
2013-02-05 03:21:00,67.0,64.0,30.07,NNW,328,4.0,10.0,90,0.02,,,0.04,,2013-02-05 13:21:00,
2013-02-05 03:31:00,67.0,64.0,30.06,West,265,2.0,4.0,90,0.02,,,0.04,,2013-02-05 13:31:00,
2013-02-05 03:41:00,67.0,64.0,30.06,West,265,2.0,4.0,90,0.02,,,0.04,,2013-02-05 13:41:00,
2013-02-05 03:52:00,66.0,63.0,30.05,WSW,252,2.0,6.0,91,0.00,,,0.04,,2013-02-05 13:52:00,
2013-02-05 04:01:00,65.0,63.0,30.05,SW,236,2.0,7.0,92,0.00,,,0.04,,2013-02-05 14:01:00,
2013-02-05 04:12:00,65.0,63.0,30.05,SW,236,2.0,7.0,92,0.00,,,0.04,,2013-02-05 14:12:00,
2013-02-05 04:21:00,65.0,63.0,30.05,WNW,285,3.0,7.0,92,0.00,,,0.04,,2013-02-05 14:21:00,
2013-02-05 04:31:00,65.0,63.0,30.05,WSW,243,3.0,7.0,93,0.00,,,0.04,,2013-02-05 14:31:00,
2013-02-05 04:41:00,65.0,63.0,30.05,WSW,243,3.0,7.0,93,0.00,,,0.04,,2013-02-05 14:41:00,
2013-02-05 04:52:00,66.0,64.0,30.06,ESE,117,1.0,4.0,93,0.01,,,0.05,,2013-02-05 14:52:00,
2013-02-05 05:01:00,65.0,63.0,30.05,WNW,282,3.0,7.0,93,0.05,,,0.09,,2013-02-05 15:01:00,
2013-02-05 05:11:00,65.0,63.0,30.05,WNW,282,3.0,7.0,93,0.05,,,0.09,,2013-02-05 15:11:00,
2013-02-05 05:21:00,65.0,63.0,30.05,WNW,286,3.0,7.0,93,0.05,,,0.09,,2013-02-05 15:21:00,
2013-02-05 05:32:00,65.0,63.0,30.06,NW,320,0.0,4.0,94,0.05,,,0.09,,2013-02-05 15:32:00,
2013-02-05 05:41:00,65.0,63.0,30.06,NW,320,0.0,4.0,94,0.05,,,0.09,,2013-02-05 15:41:00,
2013-02-05 05:52:00,66.0,64.0,30.06,NNW,341,2.0,12.0,94,0.04,,,0.09,,2013-02-05 15:52:00,
2013-02-05 06:01:00,67.0,65.0,30.06,NE,54,6.0,10.0,93,0.00,,,0.09,,2013-02-05 16:01:00,
2013-02-05 06:11:00,67.0,65.0,30.06,NE,54,6.0,10.0,93,0.00,,,0.09,,2013-02-05 16:11:00,
2013-02-05 06:22:00,70.0,67.0,30.06,NE,41,8.0,15.0,89,0.00,,,0.09,,2013-02-05 16:22:00,
2013-02-05 06:32:00,70.0,66.0,30.06,NNE,26,10.0,17.0,86,0.00,,,0.09,,2013-02-05 16:32:00,
2013-02-05 06:41:00,70.0,66.0,30.06,NNE,26,10.0,17.0,86,0.00,,,0.09,,2013-02-05 16:41:00,
2013-02-05 06:52:00,71.0,66.0,30.06,ENE,61,11.0,19.0,84,0.00,,,0.09,,2013-02-05 16:52:00,
2013-02-05 07:01:00,72.0,65.0,30.07,ENE,76,9.0,16.0,80,0.00,,,0.09,,2013-02-05 17:01:00,
2013-02-05 07:11:00,72.0,65.0,30.07,ENE,76,9.0,16.0,80,0.00,,,0.09,,2013-02-05 17:11:00,
2013-02-05 07:21:00,72.0,64.0,30.08,ENE,64,9.0,16.0,77,0.00,,,0.09,,2013-02-05 17:21:00,
2013-02-05 07:32:00,73.0,65.0,30.09,East,81,5.0,13.0,77,0.00,,,0.09,,2013-02-05 17:32:00,
2013-02-05 07:41:00,73.0,65.0,30.09,East,81,5.0,13.0,77,0.00,,,0.09,,2013-02-05 17:41:00,
2013-02-05 07:52:00,72.0,65.0,30.09,ENE,64,9.0,12.0,79,0.00,,,0.09,,2013-02-05 17:52:00,
2013-02-05 08:01:00,72.0,66.0,30.09,ENE,66,7.0,17.0,81,0.00,,,0.09,,2013-02-05 18:01:00,
2013-02-05 08:11:00,72.0,66.0,30.09,ENE,66,7.0,17.0,81,0.00,,,0.09,,2013-02-05 18:11:00,
2013-02-05 08:21:00,72.0,66.0,30.09,NE,46,4.0,12.0,81,0.00,,,0.09,,2013-02-05 18:21:00,
2013-02-05 08:31:00,72.0,65.0,30.10,NE,56,9.0,13.0,79,0.00,,,0.09,,2013-02-05 18:31:00,
2013-02-05 08:42:00,72.0,65.0,30.10,NE,56,9.0,13.0,79,0.00,,,0.09,,2013-02-05 18:42:00,
2013-02-05 08:52:00,72.0,65.0,30.10,NE,56,9.0,15.0,80,0.00,,,0.09,,2013-02-05 18:52:00,
2013-02-05 09:01:00,72.0,65.0,30.10,NE,49,8.0,13.0,78,0.00,,,0.09,,2013-02-05 19:01:00,
2013-02-05 09:11:00,72.0,65.0,30.10,NE,49,8.0,13.0,78,0.00,,,0.09,,2013-02-05 19:11:00,
2013-02-05 09:21:00,73.0,65.0,30.11,NE,56,9.0,14.0,76,0.01,,,0.10,,2013-02-05 19:21:00,
2013-02-05 09:31:00,72.0,65.0,30.11,ENE,58,10.0,17.0,80,0.01,,,0.10,,2013-02-05 19:31:00,
2013-02-05 09:42:00,72.0,65.0,30.11,ENE,58,10.0,17.0,80,0.01,,,0.10,,2013-02-05 19:42:00,
2013-02-05 09:52:00,72.0,66.0,30.11,ENE,59,9.0,14.0,82,0.01,,,0.10,,2013-02-05 19:52:00,
2013-02-05 10:01:00,73.0,67.0,30.11,NE,38,9.0,15.0,81,0.01,,,0.10,,2013-02-05 20:01:00,
2013-02-05 10:11:00,73.0,67.0,30.11,NE,38,9.0,15.0,81,0.01,,,0.10,,2013-02-05 20:11:00,
2013-02-05 10:21:00,73.0,66.0,30.11,NE,50,9.0,14.0,79,0.00,,,0.10,,2013-02-05 20:21:00,
2013-02-05 10:31:00,73.0,66.0,30.10,ENE,58,10.0,15.0,78,0.00,,,0.10,,2013-02-05 20:31:00,
2013-02-05 10:41:00,73.0,66.0,30.10,ENE,58,10.0,15.0,78,0.00,,,0.10,,2013-02-05 20:41:00,
2013-02-05 10:52:00,73.0,65.0,30.10,NE,54,8.0,16.0,77,0.00,,,0.10,,2013-02-05 20:52:00,
2013-02-05 11:01:00,73.0,65.0,30.10,NE,43,8.0,15.0,77,0.00,,,0.10,,2013-02-05 21:01:00,
2013-02-05 11:11:00,73.0,65.0,30.10,NE,43,8.0,15.0,77,0.00,,,0.10,,2013-02-05 21:11:00,
2013-02-05 11:21:00,73.0,65.0,30.09,ENE,61,8.0,13.0,76,0.00,,,0.10,,2013-02-05 21:21:00,
2013-02-05 11:31:00,73.0,65.0,30.09,NE,52,8.0,12.0,77,0.00,,,0.10,,2013-02-05 21:31:00,
2013-02-05 11:41:00,73.0,65.0,30.09,NE,52,8.0,12.0,77,0.00,,,0.10,,2013-02-05 21:41:00,
2013-02-05 11:52:00,73.0,65.0,30.08,NE,56,9.0,14.0,76,0.00,,,0.10,,2013-02-05 21:52:00,
2013-02-05 12:01:00,73.0,65.0,30.07,NE,53,9.0,13.0,76,0.00,,,0.10,,2013-02-05 22:01:00,
2013-02-05 12:11:00,73.0,65.0,30.07,NE,53,9.0,13.0,76,0.00,,,0.10,,2013-02-05 22:11:00,
2013-02-05 12:21:00,73.0,65.0,30.07,NE,54,7.0,12.0,77,0.00,,,0.10,,2013-02-05 22:21:00,
2013-02-05 12:31:00,73.0,65.0,30.06,NE,54,8.0,13.0,75,0.00,,,0.10,,2013-02-05 22:31:00,
2013-02-05 12:41:00,73.0,65.0,30.06,NE,54,8.0,13.0,75,0.00,,,0.10,,2013-02-05 22:41:00,
2013-02-05 12:52:00,73.0,64.0,30.06,NE,41,7.0,12.0,74,0.00,,,0.10,,2013-02-05 22:52:00,
2013-02-05 13:01:00,73.0,65.0,30.05,NE,49,9.0,13.0,75,0.00,,,0.10,,2013-02-05 23:01:00,
2013-02-05 13:11:00,73.0,65.0,30.05,NE,49,9.0,13.0,75,0.00,,,0.10,,2013-02-05 23:11:00,
2013-02-05 13:21:00,74.0,65.0,30.04,ENE,63,7.0,12.0,74,0.00,,,0.10,,2013-02-05 23:21:00,
2013-02-05 13:31:00,73.0,64.0,30.03,ENE,64,6.0,9.0,74,0.00,,,0.10,,2013-02-05 23:31:00,
2013-02-05 13:41:00,73.0,64.0,30.03,ENE,64,6.0,9.0,74,0.00,,,0.10,,2013-02-05 23:41:00,
2013-02-05 13:52:00,73.0,64.0,30.03,NE,52,7.0,11.0,74,0.00,,,0.10,,2013-02-05 23:52:00,
2013-02-05 14:01:00,74.0,65.0,30.02,SSE,147,7.0,11.0,74,0.00,,,0.10,,2013-02-06 00:01:00,
2013-02-05 14:11:00,74.0,65.0,30.02,SSE,147,7.0,11.0,74,0.00,,,0.10,,2013-02-06 00:11:00,
2013-02-05 14:21:00,73.0,64.0,30.02,NE,49,7.0,10.0,74,0.00,,,0.10,,2013-02-06 00:21:00,
2013-02-05 14:31:00,74.0,65.0,30.02,NE,53,7.0,12.0,74,0.00,,,0.10,,2013-02-06 00:31:00,
2013-02-05 14:42:00,74.0,65.0,30.02,NE,53,7.0,12.0,74,0.00,,,0.10,,2013-02-06 00:42:00,
2013-02-05 14:52:00,73.0,65.0,30.02,NNE,25,6.0,12.0,76,0.00,,,0.10,,2013-02-06 00:52:00,
2013-02-05 15:01:00,73.0,65.0,30.01,ENE,60,7.0,11.0,76,0.00,,,0.10,,2013-02-06 01:01:00,
2013-02-05 15:11:00,73.0,65.0,30.01,ENE,60,7.0,11.0,76,0.00,,,0.10,,2013-02-06 01:11:00,
2013-02-05 15:21:00,74.0,66.0,30.01,NNE,33,6.0,9.0,76,0.00,,,0.10,,2013-02-06 01:21:00,
2013-02-05 15:31:00,73.0,65.0,30.01,ENE,71,8.0,11.0,75,0.00,,,0.10,,2013-02-06 01:31:00,
2013-02-05 15:41:00,73.0,65.0,30.01,ENE,71,8.0,11.0,75,0.00,,,0.10,,2013-02-06 01:41:00,
2013-02-05 15:52:00,73.0,65.0,30.01,ENE,59,6.0,10.0,76,0.00,,,0.10,,2013-02-06 01:52:00,
2013-02-05 16:01:00,74.0,66.0,30.01,NNE,29,8.0,12.0,76,0.00,,,0.10,,2013-02-06 02:01:00,
2013-02-05 16:11:00,74.0,66.0,30.01,NNE,29,8.0,12.0,76,0.00,,,0.10,,2013-02-06 02:11:00,
2013-02-05 16:21:00,74.0,66.0,30.01,SSW,211,7.0,10.0,76,0.00,,,0.10,,2013-02-06 02:21:00,
2013-02-05 16:31:00,73.0,65.0,30.01,NNE,21,7.0,12.0,75,0.00,,,0.10,,2013-02-06 02:31:00,
2013-02-05 16:41:00,73.0,65.0,30.01,NNE,21,7.0,12.0,75,0.00,,,0.10,,2013-02-06 02:41:00,
2013-02-05 16:52:00,74.0,66.0,30.02,North,6,7.0,10.0,77,0.00,,,0.10,,2013-02-06 02:52:00,
2013-02-05 17:02:00,73.0,65.0,30.03,NNE,25,7.0,11.0,77,0.00,,,0.10,,2013-02-06 03:02:00,
2013-02-05 17:11:00,73.0,65.0,30.03,NNE,25,7.0,11.0,77,0.00,,,0.10,,2013-02-06 03:11:00,
2013-02-05 17:21:00,73.0,65.0,30.03,NNE,28,6.0,11.0,77,0.00,,,0.10,,2013-02-06 03:21:00,
2013-02-05 17:31:00,73.0,66.0,30.03,ENE,62,9.0,14.0,78,0.00,,,0.10,,2013-02-06 03:31:00,
2013-02-05 17:42:00,73.0,66.0,30.03,ENE,62,9.0,14.0,78,0.00,,,0.10,,2013-02-06 03:42:00,
2013-02-05 17:52:00,73.0,66.0,30.03,North,360,7.0,12.0,78,0.00,,,0.10,,2013-02-06 03:52:00,
2013-02-05 18:01:00,73.0,67.0,30.04,ENE,62,10.0,14.0,81,0.00,,,0.10,,2013-02-06 04:01:00,
2013-02-05 18:11:00,73.0,67.0,30.04,ENE,62,10.0,14.0,81,0.00,,,0.10,,2013-02-06 04:11:00,
2013-02-05 18:21:00,72.0,66.0,30.04,East,85,6.0,12.0,81,0.00,,,0.10,,2013-02-06 04:21:00,
2013-02-05 18:31:00,72.0,65.0,30.04,NE,36,9.0,12.0,79,0.00,,,0.10,,2013-02-06 04:31:00,
2013-02-05 18:41:00,72.0,65.0,30.04,NE,36,9.0,12.0,79,0.00,,,0.10,,2013-02-06 04:41:00,
2013-02-05 18:52:00,72.0,65.0,30.05,NNE,25,11.0,15.0,80,0.00,,,0.10,,2013-02-06 04:52:00,
2013-02-05 19:01:00,70.0,64.0,30.05,NW,318,3.0,10.0,80,0.00,,,0.10,,2013-02-06 05:01:00,
2013-02-05 19:11:00,70.0,64.0,30.05,NW,318,3.0,10.0,80,0.00,,,0.10,,2013-02-06 05:11:00,
2013-02-05 19:22:00,71.0,65.0,30.06,NNW,341,1.0,12.0,82,0.13,,,0.21,,2013-02-06 05:22:00,
2013-02-05 19:31:00,71.0,66.0,30.06,North,3,8.0,14.0,83,0.13,,,0.21,,2013-02-06 05:31:00,
2013-02-05 19:41:00,71.0,66.0,30.06,North,3,8.0,14.0,83,0.13,,,0.21,,2013-02-06 05:41:00,
2013-02-05 19:53:00,71.0,66.0,30.07,NW,308,4.0,8.0,85,0.13,,,0.21,,2013-02-06 05:53:00,
2013-02-05 20:01:00,71.0,66.0,30.07,NW,308,4.0,8.0,85,0.13,,,0.21,,2013-02-06 06:01:00,
2013-02-05 20:11:00,71.0,66.0,30.07,NW,308,4.0,8.0,85,0.13,,,0.21,,2013-02-06 06:11:00,
2013-02-05 20:21:00,71.0,67.0,30.08,North,3,7.0,10.0,86,0.00,,,0.21,,2013-02-06 06:21:00,
2013-02-05 20:31:00,71.0,66.0,30.08,NE,39,8.0,11.0,84,0.00,,,0.21,,2013-02-06 06:31:00,
2013-02-05 20:42:00,71.0,66.0,30.08,NE,39,8.0,11.0,84,0.00,,,0.21,,2013-02-06 06:42:00,
2013-02-05 20:52:00,72.0,67.0,30.09,NNE,27,9.0,14.0,85,0.00,,,0.21,,2013-02-06 06:52:00,
2013-02-05 21:01:00,71.0,66.0,30.09,North,9,6.0,10.0,85,0.00,,,0.21,,2013-02-06 07:01:00,
2013-02-05 21:11:00,71.0,66.0,30.09,North,9,6.0,10.0,85,0.00,,,0.21,,2013-02-06 07:11:00,
2013-02-05 21:21:00,71.0,66.0,30.09,WNW,301,3.0,12.0,85,0.00,,,0.21,,2013-02-06 07:21:00,
2013-02-05 21:32:00,68.0,64.0,30.10,WSW,244,3.0,7.0,86,0.00,,,0.21,,2013-02-06 07:32:00,
2013-02-05 21:41:00,68.0,64.0,30.10,WSW,244,3.0,7.0,86,0.00,,,0.21,,2013-02-06 07:41:00,
2013-02-05 21:52:00,68.0,64.0,30.09,West,276,1.0,5.0,88,0.00,,,0.21,,2013-02-06 07:52:00,
2013-02-05 22:01:00,67.0,64.0,30.09,West,268,1.0,5.0,89,0.01,,,0.22,,2013-02-06 08:01:00,
2013-02-05 22:11:00,67.0,64.0,30.09,West,268,1.0,5.0,89,0.01,,,0.22,,2013-02-06 08:11:00,
2013-02-05 22:21:00,67.0,64.0,30.09,SSW,197,2.0,9.0,90,0.06,,,0.27,,2013-02-06 08:21:00,
2013-02-05 22:31:00,67.0,64.0,30.09,West,276,0.0,3.0,91,0.07,,,0.28,,2013-02-06 08:31:00,
2013-02-05 22:41:00,67.0,64.0,30.09,West,276,0.0,3.0,91,0.07,,,0.28,,2013-02-06 08:41:00,
2013-02-05 22:53:00,67.0,64.0,30.10,West,281,0.0,2.0,91,0.16,,,0.37,,2013-02-06 08:53:00,
2013-02-05 23:01:00,66.0,64.0,30.09,West,271,2.0,5.0,92,0.21,,,0.43,,2013-02-06 09:01:00,
2013-02-05 23:11:00,66.0,64.0,30.09,West,271,2.0,5.0,92,0.21,,,0.43,,2013-02-06 09:11:00,
2013-02-05 23:21:00,66.0,64.0,30.09,WNW,297,4.0,7.0,93,0.15,,,0.43,,2013-02-06 09:21:00,
2013-02-05 23:31:00,66.0,64.0,30.08,WNW,297,3.0,7.0,93,0.14,,,0.43,,2013-02-06 09:31:00,
2013-02-05 23:41:00,66.0,64.0,30.08,WNW,297,3.0,7.0,93,0.14,,,0.43,,2013-02-06 09:41:00,
2013-02-05 23:52:00,66.0,64.0,30.08,West,272,2.0,6.0,93,0.07,,,0.44,,2013-02-06 09:52:00,